createdAt,value
2023-01-13T00:00:43.415Z,77.24
2023-01-13T00:03:41.863Z,77.20
2023-01-13T00:06:31.746Z,77.24
2023-01-13T00:09:21.448Z,77.16
2023-01-13T00:12:12.773Z,77.14
2023-01-13T00:15:03.134Z,77.13
2023-01-13T00:18:04.991Z,77.14
2023-01-13T00:20:50.508Z,77.07
2023-01-13T00:23:40.422Z,77.08
2023-01-13T00:26:33.477Z,77.20
2023-01-13T00:29:29.553Z,77.20
2023-01-13T00:32:19.339Z,77.06
2023-01-13T00:35:14.753Z,76.98
2023-01-13T00:38:04.917Z,77.07
2023-01-13T00:41:03.415Z,77.09
2023-01-13T00:44:09.591Z,77.11
2023-01-13T00:47:07.136Z,77.04
2023-01-13T00:50:06.344Z,77.15
2023-01-13T00:53:00.476Z,77.12
2023-01-13T00:55:50.580Z,77.08
2023-01-13T00:58:43.320Z,77.08
2023-01-13T01:01:33.805Z,76.99
2023-01-13T01:04:31.141Z,77.12
2023-01-13T01:07:21.182Z,77.09
2023-01-13T01:10:15.041Z,77.05
2023-01-13T01:13:04.831Z,77.11
2023-01-13T01:16:00.663Z,77.12
2023-01-13T01:18:52.691Z,77.13
2023-01-13T01:21:44.017Z,77.06
2023-01-13T01:24:36.722Z,77.07
2023-01-13T01:27:36.574Z,77.11
2023-01-13T01:30:34.710Z,77.08
2023-01-13T01:34:28.222Z,77.11
2023-01-13T01:36:51.723Z,77.17
2023-01-13T01:39:42.137Z,77.12
2023-01-13T01:43:09.750Z,77.06
2023-01-13T01:46:07.679Z,77.06
2023-01-13T01:49:06.590Z,77.06
2023-01-13T01:52:03.021Z,77.08
2023-01-13T01:55:23.364Z,77.06
2023-01-13T01:58:22.428Z,77.12
2023-01-13T02:01:15.515Z,77.10
2023-01-13T02:04:11.916Z,77.16
2023-01-13T02:07:09.294Z,77.12
2023-01-13T02:10:12.199Z,77.13
2023-01-13T02:13:05.847Z,77.02
2023-01-13T02:16:24.812Z,77.06
2023-01-13T02:19:43.071Z,77.03
2023-01-13T02:22:52.676Z,77.10
2023-01-13T02:26:04.909Z,77.12
2023-01-13T02:29:32.859Z,77.13
2023-01-13T02:32:43.463Z,77.11
2023-01-13T02:35:36.069Z,77.14
2023-01-13T02:38:41.699Z,77.04
2023-01-13T02:42:00.329Z,77.08
2023-01-13T02:45:06.574Z,77.17
2023-01-13T02:48:01.246Z,77.06
2023-01-13T02:50:48.562Z,77.24
2023-01-13T02:54:32.155Z,77.13
2023-01-13T02:57:05.029Z,77.20
2023-01-13T03:00:41.468Z,77.12
2023-01-13T03:03:40.189Z,77.11
2023-01-13T03:06:49.033Z,77.22
2023-01-13T03:09:45.396Z,77.09
2023-01-13T03:12:52.549Z,77.16
2023-01-13T03:15:43.540Z,77.20
2023-01-13T03:18:51.301Z,77.29
2023-01-13T03:21:50.137Z,77.40
2023-01-13T03:24:43.390Z,77.21
2023-01-13T03:27:42.187Z,77.17
2023-01-13T03:30:48.345Z,77.27
2023-01-13T03:33:45.875Z,77.25
2023-01-13T03:36:40.398Z,77.21
2023-01-13T03:39:38.204Z,77.19
2023-01-13T03:43:05.214Z,77.38
2023-01-13T03:46:03.676Z,77.32
2023-01-13T03:49:03.305Z,77.28
2023-01-13T03:51:58.729Z,77.36
2023-01-13T03:55:05.388Z,77.23
2023-01-13T03:58:16.857Z,77.25
2023-01-13T04:01:15.369Z,77.26
2023-01-13T04:04:09.520Z,77.30
2023-01-13T04:07:12.260Z,77.26
2023-01-13T04:10:06.942Z,77.30
2023-01-13T04:13:05.865Z,77.35
2023-01-13T04:16:00.477Z,77.27
2023-01-13T04:18:54.918Z,77.31
2023-01-13T04:21:44.336Z,77.26
2023-01-13T04:24:40.053Z,77.27
2023-01-13T04:27:37.566Z,77.30
2023-01-13T04:30:28.177Z,77.27
2023-01-13T04:33:19.880Z,77.33
2023-01-13T04:36:12.029Z,77.30
2023-01-13T04:39:07.421Z,77.52
2023-01-13T04:42:01.379Z,77.43
2023-01-13T04:44:51.635Z,77.38
2023-01-13T04:48:11.507Z,77.33
2023-01-13T04:51:10.963Z,77.29
2023-01-13T04:54:20.675Z,77.39
2023-01-13T04:57:14.872Z,77.36
2023-01-13T05:00:17.742Z,77.38
2023-01-13T05:03:13.354Z,77.44
2023-01-13T05:06:13.175Z,77.41
2023-01-13T05:09:29.374Z,77.40
2023-01-13T05:12:40.733Z,77.35
2023-01-13T05:15:49.779Z,77.34
2023-01-13T05:18:43.276Z,77.33
2023-01-13T05:22:07.042Z,77.44
2023-01-13T05:25:19.452Z,77.38
2023-01-13T05:28:41.088Z,77.45
2023-01-13T05:34:54.129Z,77.42
2023-01-13T05:38:00.859Z,77.48
2023-01-13T05:41:11.240Z,77.50
2023-01-13T05:44:11.200Z,77.50
2023-01-13T05:46:53.938Z,77.51
2023-01-13T05:49:55.668Z,77.41
2023-01-13T05:52:50.257Z,77.53
2023-01-13T05:55:47.825Z,77.44
2023-01-13T05:58:45.185Z,77.60
2023-01-13T06:01:45.357Z,77.50
2023-01-13T06:04:28.477Z,77.62
2023-01-13T06:07:19.047Z,77.52
2023-01-13T06:10:21.696Z,77.55
2023-01-13T06:13:30.691Z,77.59
2023-01-13T06:16:20.711Z,77.67
2023-01-13T06:19:21.076Z,77.70
2023-01-13T06:22:21.605Z,77.66
2023-01-13T06:25:31.439Z,77.64
2023-01-13T06:28:07.326Z,77.65
2023-01-13T06:31:02.984Z,77.65
2023-01-13T06:33:58.231Z,77.59
2023-01-13T06:37:04.230Z,77.74
2023-01-13T06:40:01.765Z,77.79
2023-01-13T06:43:20.254Z,77.80
2023-01-13T06:46:12.035Z,77.76
2023-01-13T06:49:15.745Z,77.86
2023-01-13T06:52:09.487Z,77.89
2023-01-13T06:55:50.560Z,77.87
2023-01-13T06:59:07.449Z,77.92
2023-01-13T07:01:47.124Z,77.91
2023-01-13T07:04:42.511Z,77.98
2023-01-13T07:07:40.882Z,77.91
2023-01-13T07:10:37.270Z,78.05
2023-01-13T07:13:53.032Z,77.94
2023-01-13T07:16:46.915Z,77.98
2023-01-13T07:19:37.688Z,78.05
2023-01-13T07:22:37.336Z,78.01
2023-01-13T07:25:27.873Z,77.99
2023-01-13T07:28:25.486Z,78.03
2023-01-13T07:31:16.440Z,77.95
2023-01-13T07:34:31.052Z,77.99
2023-01-13T07:37:21.196Z,77.95
2023-01-13T07:40:35.078Z,77.97
2023-01-13T07:43:35.248Z,78.06
2023-01-13T07:46:51.218Z,78.09
2023-01-13T07:49:41.477Z,78.20
2023-01-13T07:52:31.493Z,78.10
2023-01-13T07:55:23.120Z,78.06
2023-01-13T07:58:14.189Z,78.11
2023-01-13T08:01:13.425Z,78.14
2023-01-13T08:04:19.243Z,78.17
2023-01-13T08:07:18.596Z,78.25
2023-01-13T08:10:11.046Z,78.10
2023-01-13T08:13:20.435Z,78.13
2023-01-13T08:16:13.277Z,78.17
2023-01-13T08:19:27.664Z,78.23
2023-01-13T08:22:18.890Z,78.21
2023-01-13T08:26:04.445Z,78.26
2023-01-13T08:28:14.421Z,78.29
2023-01-13T08:31:08.248Z,78.30
2023-01-13T08:34:02.576Z,78.25
2023-01-13T08:36:52.735Z,78.33
2023-01-13T08:39:45.174Z,78.31
2023-01-13T08:42:35.414Z,78.38
2023-01-13T08:45:29.100Z,78.34
2023-01-13T08:48:19.204Z,78.31
2023-01-13T08:51:17.162Z,78.32
2023-01-13T08:54:09.789Z,78.34
2023-01-13T08:57:02.914Z,78.36
2023-01-13T08:59:53.140Z,78.29
2023-01-13T09:02:49.032Z,78.25
2023-01-13T09:05:32.691Z,78.32
2023-01-13T09:08:24.251Z,78.39
2023-01-13T09:11:40.524Z,78.28
2023-01-13T09:14:33.128Z,78.31
2023-01-13T09:17:33.380Z,78.29
2023-01-13T09:20:35.047Z,78.29
2023-01-13T09:23:59.957Z,78.38
2023-01-13T09:26:50.129Z,78.37
2023-01-13T09:30:51.930Z,78.36
2023-01-13T09:33:33.701Z,78.34
2023-01-13T09:36:46.397Z,78.45
2023-01-13T09:39:37.375Z,78.35
2023-01-13T09:43:07.081Z,78.47
2023-01-13T09:46:38.356Z,78.34
2023-01-13T09:49:40.822Z,78.45
2023-01-13T09:52:43.062Z,78.45
2023-01-13T09:56:23.217Z,78.40
2023-01-13T09:58:50.168Z,78.51
2023-01-13T10:02:01.905Z,78.37
2023-01-13T10:05:12.031Z,78.42
2023-01-13T10:08:12.548Z,78.35
2023-01-13T10:11:31.269Z,78.41
2023-01-13T10:14:34.851Z,78.48
2023-01-13T10:18:02.730Z,78.43
2023-01-13T10:21:10.436Z,78.37
2023-01-13T10:24:29.302Z,78.49
2023-01-13T10:27:44.858Z,78.52
2023-01-13T10:30:40.737Z,78.51
2023-01-13T10:33:47.474Z,78.49
2023-01-13T10:37:40.741Z,78.37
2023-01-13T10:41:01.251Z,78.41
2023-01-13T10:44:18.825Z,78.38
2023-01-13T10:47:42.729Z,78.36
2023-01-13T10:50:59.339Z,78.43
2023-01-13T10:53:59.372Z,78.42
2023-01-13T10:57:20.282Z,78.32
2023-01-13T11:00:47.535Z,78.34
2023-01-13T11:04:04.246Z,78.30
2023-01-13T11:07:49.739Z,78.21
2023-01-13T11:10:49.687Z,78.37
2023-01-13T11:14:02.885Z,78.34
2023-01-13T11:17:01.313Z,78.26
2023-01-13T11:20:15.668Z,78.23
2023-01-13T11:24:04.196Z,78.34
2023-01-13T11:27:00.304Z,78.29
2023-01-13T11:30:24.002Z,78.21
2023-01-13T11:33:45.245Z,78.26
2023-01-13T11:36:51.037Z,78.18
2023-01-13T11:39:59.925Z,78.17
2023-01-13T11:43:27.344Z,78.12
2023-01-13T11:46:22.176Z,78.02
2023-01-13T11:49:49.781Z,78.01
2023-01-13T11:53:38.347Z,77.95
2023-01-13T11:57:04.098Z,77.91
2023-01-13T12:00:30.299Z,77.83
2023-01-13T12:03:33.711Z,78.08
2023-01-13T12:06:56.011Z,78.04
2023-01-13T12:10:23.397Z,77.97
2023-01-13T12:13:35.071Z,77.82
2023-01-13T12:16:52.726Z,77.85
2023-01-13T12:19:59.161Z,77.86
2023-01-13T12:23:31.964Z,77.90
2023-01-13T12:27:05.567Z,77.82
2023-01-13T12:30:36.795Z,77.99
2023-01-13T12:33:39.895Z,77.88
2023-01-13T12:36:41.959Z,77.76
2023-01-13T12:39:45.288Z,77.82
2023-01-13T12:43:07.949Z,77.81
2023-01-13T12:46:49.064Z,77.95
2023-01-13T12:51:03.947Z,77.98
2023-01-13T12:54:01.795Z,77.88
2023-01-13T12:57:03.323Z,77.78
2023-01-13T13:00:29.476Z,77.92
2023-01-13T13:03:43.648Z,77.81
2023-01-13T13:06:38.364Z,77.87
2023-01-13T13:09:54.149Z,77.73
2023-01-13T13:13:19.968Z,77.65
2023-01-13T13:16:52.464Z,77.73
2023-01-13T13:20:03.287Z,77.78
2023-01-13T13:22:58.091Z,77.73
2023-01-13T13:26:07.979Z,77.67
2023-01-13T13:29:51.142Z,77.58
2023-01-13T13:33:07.976Z,77.65
2023-01-13T13:37:04.279Z,77.69
2023-01-13T13:40:41.316Z,77.75
2023-01-13T13:44:46.431Z,77.69
2023-01-13T13:48:01.862Z,77.58
2023-01-13T13:51:08.269Z,77.48
2023-01-13T13:54:04.669Z,77.55
2023-01-13T13:57:02.781Z,77.38
2023-01-13T14:00:06.823Z,77.64
2023-01-13T14:03:19.597Z,77.71
2023-01-13T14:06:41.845Z,77.57
2023-01-13T14:10:16.402Z,77.57
2023-01-13T14:13:40.850Z,77.41
2023-01-13T14:17:09.364Z,77.48
2023-01-13T14:20:31.298Z,77.40
2023-01-13T14:24:48.165Z,77.47
2023-01-13T14:28:25.585Z,77.38
2023-01-13T14:32:15.194Z,77.36
2023-01-13T14:35:53.813Z,77.40
2023-01-13T14:39:38.716Z,77.42
2023-01-13T14:43:39.559Z,77.46
2023-01-13T14:47:53.942Z,77.48
2023-01-13T14:50:54.365Z,77.31
2023-01-13T14:54:12.983Z,77.36
2023-01-13T14:57:33.482Z,77.38
2023-01-13T15:01:10.494Z,77.34
2023-01-13T15:04:34.774Z,77.25
2023-01-13T15:08:14.727Z,77.26
2023-01-13T15:11:25.852Z,77.46
2023-01-13T15:14:49.364Z,77.37
2023-01-13T15:18:21.526Z,77.42
2023-01-13T15:21:35.142Z,77.43
2023-01-13T15:25:10.006Z,77.34
2023-01-13T15:28:36.058Z,77.24
2023-01-13T15:32:05.447Z,77.34
2023-01-13T15:35:38.328Z,77.37
2023-01-13T15:39:05.840Z,77.25
2023-01-13T15:43:17.607Z,77.32
2023-01-13T15:47:20.241Z,77.37
2023-01-13T15:51:20.290Z,77.33
2023-01-13T15:54:50.561Z,77.23
2023-01-13T15:58:28.097Z,77.27
2023-01-13T16:01:59.788Z,77.15
2023-01-13T16:05:55.591Z,77.25
2023-01-13T16:09:35.626Z,77.34
2023-01-13T16:12:45.532Z,77.21
2023-01-13T16:15:40.377Z,77.38
2023-01-13T16:18:46.884Z,77.21
2023-01-13T16:21:46.855Z,77.33
2023-01-13T16:25:10.426Z,77.21
2023-01-13T16:28:28.105Z,77.12
2023-01-13T16:31:32.924Z,77.17
2023-01-13T16:34:24.057Z,77.41
2023-01-13T16:37:37.664Z,77.21
2023-01-13T16:40:32.781Z,77.15
2023-01-13T16:43:43.744Z,77.12
2023-01-13T16:47:06.678Z,77.19
2023-01-13T16:50:31.546Z,77.23
2023-01-13T16:53:24.008Z,77.31
2023-01-13T16:56:40.029Z,77.19
2023-01-13T16:59:38.081Z,77.34
2023-01-13T17:02:39.369Z,77.28
2023-01-13T17:05:54.433Z,77.23
2023-01-13T17:09:18.443Z,77.18
2023-01-13T17:12:11.086Z,77.18
2023-01-13T17:15:28.633Z,77.04
2023-01-13T17:18:20.146Z,77.09
2023-01-13T17:21:11.129Z,77.13
2023-01-13T17:24:05.200Z,77.05
2023-01-13T17:26:58.102Z,77.20
2023-01-13T17:29:51.283Z,77.22
2023-01-13T17:33:01.785Z,77.28
2023-01-13T17:36:18.532Z,77.17
2023-01-13T17:39:14.944Z,77.03
2023-01-13T17:42:05.424Z,77.02
2023-01-13T17:45:15.476Z,77.15
2023-01-13T17:48:07.971Z,77.02
2023-01-13T17:51:24.566Z,77.15
2023-01-13T17:54:17.526Z,76.98
2023-01-13T17:57:12.471Z,77.09
2023-01-13T18:00:30.876Z,76.92
2023-01-13T18:03:38.594Z,76.94
2023-01-13T18:06:59.708Z,77.08
2023-01-13T18:10:35.038Z,76.96
2023-01-13T18:13:35.688Z,77.06
2023-01-13T18:16:59.532Z,76.92
2023-01-13T18:20:23.967Z,77.11
2023-01-13T18:23:40.124Z,77.10
2023-01-13T18:27:40.696Z,76.85
2023-01-13T18:30:47.170Z,76.93
2023-01-13T18:34:16.377Z,76.93
2023-01-13T18:37:37.401Z,76.91
2023-01-13T18:40:51.378Z,77.12
2023-01-13T18:44:04.592Z,77.02
2023-01-13T18:47:01.308Z,76.96
2023-01-13T18:49:57.851Z,76.74
2023-01-13T18:53:22.533Z,76.88
2023-01-13T18:56:17.017Z,76.78
2023-01-13T18:59:11.631Z,76.89
2023-01-13T19:02:35.656Z,76.95
2023-01-13T19:05:31.344Z,76.93
2023-01-13T19:08:22.467Z,76.91
2023-01-13T19:12:21.483Z,76.89
2023-01-13T19:15:20.141Z,76.84
2023-01-13T19:18:22.729Z,76.89
2023-01-13T19:21:37.667Z,76.80
2023-01-13T19:24:49.208Z,76.88
2023-01-13T19:28:26.666Z,76.96
2023-01-13T19:31:23.354Z,76.92
2023-01-13T19:35:20.198Z,76.96
2023-01-13T19:38:21.011Z,76.94
2023-01-13T19:41:40.384Z,76.78
2023-01-13T19:45:10.002Z,76.81
2023-01-13T19:48:25.893Z,76.89
2023-01-13T19:51:26.637Z,76.81
2023-01-13T19:54:54.291Z,76.86
2023-01-13T19:58:23.514Z,76.95
2023-01-13T20:01:21.191Z,76.93
2023-01-13T20:05:02.682Z,76.78
2023-01-13T20:08:07.190Z,76.75
2023-01-13T20:11:50.857Z,76.85
2023-01-13T20:15:11.137Z,76.91
2023-01-13T20:18:13.926Z,76.86
2023-01-13T20:21:14.915Z,76.88
2023-01-13T20:24:35.348Z,76.87
2023-01-13T20:28:27.733Z,77.03
2023-01-13T20:31:52.882Z,76.84
2023-01-13T20:35:07.926Z,76.84
2023-01-13T20:38:47.966Z,76.79
2023-01-13T20:42:27.663Z,76.77
2023-01-13T20:45:42.028Z,76.94
2023-01-13T20:48:32.152Z,76.89
2023-01-13T20:51:44.118Z,77.01
2023-01-13T20:54:38.989Z,76.89
2023-01-13T20:57:46.583Z,76.79
2023-01-13T21:00:36.757Z,76.89
2023-01-13T21:04:19.057Z,76.87
2023-01-13T21:07:25.510Z,76.70
2023-01-13T21:10:44.036Z,76.73
2023-01-13T21:13:58.866Z,76.74
2023-01-13T21:17:05.307Z,76.80
2023-01-13T21:20:24.942Z,76.88
2023-01-13T21:24:19.363Z,76.86
2023-01-13T21:27:13.981Z,76.68
2023-01-13T21:30:19.636Z,76.79
2023-01-13T21:33:36.586Z,76.84
2023-01-13T21:36:34.149Z,76.85
2023-01-13T21:39:49.912Z,76.73
2023-01-13T21:43:09.389Z,76.68
2023-01-13T21:46:45.347Z,76.68
2023-01-13T21:50:00.727Z,76.89
2023-01-13T21:52:42.842Z,76.68
2023-01-13T21:55:43.817Z,76.75
2023-01-13T21:59:15.843Z,76.84
2023-01-13T22:02:41.268Z,76.73
2023-01-13T22:06:00.534Z,76.86
2023-01-13T22:09:00.623Z,76.73
2023-01-13T22:11:52.744Z,76.72
2023-01-13T22:14:46.201Z,76.73
2023-01-13T22:17:43.095Z,76.77
2023-01-13T22:20:45.570Z,76.68
2023-01-13T22:24:09.653Z,76.60
2023-01-13T22:27:44.120Z,76.74
2023-01-13T22:30:42.797Z,76.77
2023-01-13T22:33:48.955Z,76.68
2023-01-13T22:36:44.734Z,76.72
2023-01-13T22:40:19.408Z,76.62
2023-01-13T22:43:12.467Z,76.76
2023-01-13T22:46:19.737Z,76.67
2023-01-13T22:49:13.884Z,76.70
2023-01-13T22:52:17.658Z,76.70
2023-01-13T22:55:47.679Z,76.58
2023-01-13T22:58:46.984Z,76.63
2023-01-13T23:01:50.299Z,76.53
2023-01-13T23:05:02.123Z,76.61
2023-01-13T23:08:12.128Z,76.60
2023-01-13T23:11:21.116Z,76.72
2023-01-13T23:14:35.958Z,76.78
2023-01-13T23:17:34.424Z,76.87
2023-01-13T23:20:31.045Z,76.78
2023-01-13T23:23:42.882Z,76.65
2023-01-13T23:26:45.779Z,76.62
2023-01-13T23:29:43.870Z,76.68
2023-01-13T23:32:37.606Z,76.82
2023-01-13T23:36:05.688Z,76.65
2023-01-13T23:39:38.729Z,76.65
2023-01-13T23:42:38.034Z,76.74
2023-01-13T23:45:27.453Z,76.77
2023-01-13T23:48:24.616Z,76.74
2023-01-13T23:51:48.227Z,76.72
2023-01-13T23:54:44.256Z,76.71
2023-01-13T23:57:38.234Z,76.74
